Terminal Aerodrome Forecast
Issued by NWS

Home | Current Version | Previous Version | Text Only | Print | Product List | Glossary On
Versions: 1 2 3 4 5 6 7 8 9 10 11 12 13 14 15 16 17 18 19 20 21 22 23 24 25 26
000
FTUS45 KLKN 041120
TAFTPH
TAF
KTPH 041120Z 0412/0512 35012KT P6SM VCSH SCT070 BKN120
     FM042000 22011G21KT P6SM VCTS SCT070CB BKN110
      TEMPO 0420/0424 VRB20G35KT
     FM050200 34008KT P6SM SCT070 BKN110=

USA.gov is the U.S. government's official web portal to all federal, state and local government web resources and services.